Time;durP1;ratioP1;P1;durP2;ratioP2;P2;SDS_P1;SDS_P2;PMS_P1;PMS_P2;Temp;Humidity;BMP_temperature;BMP_pressure;BME280_temperature;BME280_humidity;BME280_pressure;Samples;Min_cycle;Max_cycle;Signal;HPM_P1;HPM_P2
2021/11/02 00:00:07;;;;;;;8.63;4.80;;;7.50;99.90;;;6.16;100.00;96596.25;5102542;28;20705;-73
2021/11/02 00:02:34;;;;;;;5.37;4.87;;;7.50;99.90;;;6.23;100.00;96607.72;5083593;28;20490;-75
2021/11/02 00:05:01;;;;;;;4.93;4.13;;;7.50;99.90;;;6.31;100.00;96613.88;5090361;28;20467;-73
2021/11/02 00:07:28;;;;;;;6.37;5.03;;;7.50;99.90;;;6.22;100.00;96598.03;5087332;28;20865;-73
2021/11/02 00:10:02;;;;;;;5.70;5.20;;;7.50;99.90;;;6.18;100.00;96610.28;5089997;28;20793;-75
2021/11/02 00:12:29;;;;;;;5.57;4.93;;;7.40;99.90;;;6.15;100.00;96593.78;5087269;28;20511;-73
2021/11/02 00:14:57;;;;;;;6.10;5.50;;;7.50;99.90;;;5.92;100.00;96555.03;5092759;28;20533;-73
2021/11/02 00:17:26;;;;;;;5.40;4.90;;;7.50;99.90;;;6.13;100.00;96594.00;5090307;28;20459;-75
2021/11/02 00:19:57;;;;;;;6.43;5.70;;;7.50;99.90;;;6.13;100.00;96591.31;5090310;28;20487;-72
2021/11/02 00:22:26;;;;;;;5.77;5.27;;;7.50;99.90;;;6.09;100.00;96606.22;5089514;28;21036;-73
2021/11/02 00:25:06;;;;;;;5.50;5.00;;;7.40;99.90;;;6.10;100.00;96602.50;5087211;28;20454;-72
2021/11/02 00:27:36;;;;;;;5.87;5.03;;;7.40;99.90;;;6.18;100.00;96594.19;5089463;28;20502;-71
2021/11/02 00:30:08;;;;;;;5.27;4.77;;;7.40;99.90;;;6.22;100.00;96594.56;5087447;28;20472;-77
2021/11/02 00:32:36;;;;;;;5.93;5.43;;;7.50;99.90;;;6.02;100.00;96594.75;5084434;28;21024;-74
2021/11/02 00:35:03;;;;;;;5.33;4.93;;;7.40;99.90;;;6.08;100.00;96604.59;5090417;28;20495;-73
2021/11/02 00:37:30;;;;;;;7.50;5.70;;;7.30;99.90;;;5.91;100.00;96605.13;5086890;28;20449;-72
2021/11/02 00:39:57;;;;;;;5.70;5.20;;;7.20;99.90;;;5.81;100.00;96602.09;5087182;28;20477;-72
2021/11/02 00:42:31;;;;;;;6.27;5.67;;;7.10;99.90;;;5.91;100.00;96596.25;5091287;28;20467;-73
2021/11/02 00:45:00;;;;;;;5.73;5.20;;;7.20;99.90;;;5.88;100.00;96597.53;5089162;28;20880;-73
2021/11/02 00:47:28;;;;;;;6.57;5.37;;;7.20;99.90;;;5.80;100.00;96598.63;5091273;28;20797;-73
2021/11/02 00:49:56;;;;;;;5.83;5.20;;;7.10;99.90;;;5.79;100.00;96601.50;5087322;28;20451;-74
2021/11/02 00:52:23;;;;;;;5.30;4.80;;;7.10;99.90;;;5.91;100.00;96606.97;5084634;28;20472;-74
2021/11/02 00:54:50;;;;;;;5.60;5.10;;;7.10;99.90;;;5.79;100.00;96597.00;5092646;28;20543;-71
2021/11/02 00:57:17;;;;;;;5.67;5.07;;;7.10;99.90;;;5.67;100.00;96607.56;5093104;28;20455;-73
2021/11/02 00:59:44;;;;;;;5.70;5.20;;;7.00;99.90;;;5.55;100.00;96612.03;5091404;28;20487;-73
2021/11/02 01:02:11;;;;;;;6.43;5.83;;;6.90;99.90;;;5.59;100.00;96605.19;5089354;28;20445;-72
2021/11/02 01:04:40;;;;;;;9.27;5.50;;;6.90;99.90;;;5.68;100.00;96606.53;5102417;28;20449;-73
2021/11/02 01:07:08;;;;;;;6.27;5.67;;;6.90;99.90;;;5.64;100.00;96594.63;5091344;28;20469;-72
2021/11/02 01:09:35;;;;;;;6.33;5.73;;;6.90;99.90;;;5.61;100.00;96584.34;5091555;28;20467;-73
2021/11/02 01:12:02;;;;;;;7.17;5.70;;;6.90;99.90;;;5.55;100.00;96592.44;5081805;28;20834;-72
2021/11/02 01:14:29;;;;;;;5.60;5.10;;;6.80;99.90;;;5.51;100.00;96589.38;5090986;28;20897;-73
2021/11/02 01:16:57;;;;;;;6.97;5.60;;;6.80;99.90;;;5.47;100.00;96577.44;5089420;28;20552;-74
2021/11/02 01:19:24;;;;;;;6.70;5.47;;;6.80;99.90;;;5.45;100.00;96590.25;5090188;28;20958;-74
2021/11/02 01:21:53;;;;;;;6.77;6.07;;;6.80;99.90;;;5.38;100.00;96580.41;5083995;28;20446;-73
2021/11/02 01:24:21;;;;;;;6.50;5.70;;;6.70;99.90;;;5.17;100.00;96562.00;5091233;28;20499;-73
2021/11/02 01:26:48;;;;;;;7.83;5.97;;;6.60;99.90;;;5.26;100.00;96584.81;5094443;28;20459;-76
2021/11/02 01:29:16;;;;;;;7.20;5.97;;;6.60;99.90;;;5.19;100.00;96582.19;5088700;28;20471;-73
2021/11/02 01:31:44;;;;;;;8.23;6.20;;;6.60;99.90;;;5.22;100.00;96586.28;5093981;28;20445;-72
2021/11/02 01:34:11;;;;;;;6.50;5.90;;;6.50;99.90;;;5.08;100.00;96583.72;5093788;28;20441;-73
2021/11/02 01:36:38;;;;;;;6.40;5.73;;;6.40;99.90;;;4.94;100.00;96574.13;5094224;28;20528;-73
2021/11/02 01:39:08;;;;;;;6.30;5.70;;;6.30;99.90;;;4.91;100.00;96579.88;5094411;28;20466;-73
2021/11/02 01:41:36;;;;;;;6.60;5.83;;;6.30;99.90;;;5.00;100.00;96589.31;5082932;28;20525;-74
2021/11/02 01:44:04;;;;;;;8.17;6.97;;;6.30;99.90;;;4.96;100.00;96588.91;5092929;28;20486;-73
2021/11/02 01:46:33;;;;;;;8.80;6.50;;;6.30;99.90;;;4.87;100.00;96589.38;5095287;28;20508;-74
2021/11/02 01:49:04;;;;;;;9.47;6.80;;;6.20;99.90;;;4.84;100.00;96595.97;5087204;28;20565;-73
2021/11/02 01:51:32;;;;;;;8.37;7.53;;;6.20;99.90;;;4.89;100.00;96588.13;5089105;28;20460;-74
2021/11/02 01:54:01;;;;;;;7.33;6.63;;;6.20;99.90;;;4.96;100.00;96596.94;5096389;28;20576;-73
2021/11/02 01:56:30;;;;;;;7.30;6.57;;;6.20;99.90;;;4.87;100.00;96589.38;5104263;28;20970;-73
2021/11/02 01:58:57;;;;;;;8.23;7.20;;;6.20;99.90;;;4.85;100.00;96591.44;5094174;28;20459;-74
2021/11/02 02:01:34;;;;;;;8.33;7.00;;;6.20;99.90;;;4.75;100.00;96587.34;5093221;28;20494;-73
2021/11/02 02:04:23;;;;;;;7.10;6.20;;;6.10;99.90;;;4.70;100.00;96595.22;5094191;28;20471;-74
2021/11/02 02:07:00;;;;;;;8.97;6.83;;;6.10;99.90;;;4.49;100.00;96586.47;5100422;28;20910;-73
2021/11/02 02:09:33;;;;;;;7.80;7.00;;;5.90;99.90;;;4.62;100.00;96584.75;5089227;28;20468;-75
2021/11/02 02:12:22;;;;;;;9.10;7.27;;;5.90;99.90;;;4.70;100.00;96589.88;5090333;28;20482;-73
2021/11/02 02:14:57;;;;;;;10.30;7.40;;;5.90;99.90;;;4.57;100.00;96585.41;5088827;28;20452;-73
2021/11/02 02:17:32;;;;;;;10.40;7.40;;;5.90;99.90;;;4.52;100.00;96577.19;5090821;28;20913;-73
2021/11/02 02:20:05;;;;;;;8.17;7.10;;;5.90;99.90;;;4.67;100.00;96585.75;5080817;28;20975;-72
2021/11/02 02:22:52;;;;;;;9.67;8.30;;;5.90;99.90;;;4.74;100.00;96575.03;5089989;28;20955;-72
2021/11/02 02:25:32;;;;;;;9.90;8.77;;;6.10;99.90;;;4.68;100.00;96570.53;5086039;28;20487;-72
2021/11/02 02:28:10;;;;;;;9.83;8.60;;;6.00;99.90;;;4.75;100.00;96565.97;5083723;28;20468;-73
2021/11/02 02:30:43;;;;;;;11.13;8.77;;;6.10;99.90;;;4.66;100.00;96572.59;5099208;28;20463;-72
2021/11/02 02:33:11;;;;;;;8.93;8.03;;;6.10;99.90;;;4.54;100.00;96565.25;5089423;28;20506;-72
2021/11/02 02:35:40;;;;;;;10.47;9.37;;;6.00;99.90;;;4.61;100.00;96567.06;5089313;28;20469;-73
2021/11/02 02:38:09;;;;;;;13.10;9.47;;;5.90;99.90;;;4.65;100.00;96561.06;5105772;28;20979;-72
2021/11/02 02:40:39;;;;;;;10.60;8.93;;;6.00;99.90;;;4.63;100.00;96563.13;5087022;28;20536;-73
2021/11/02 02:43:09;;;;;;;11.20;9.70;;;6.00;99.90;;;4.61;100.00;96553.69;5088919;28;20484;-74
2021/11/02 02:45:37;;;;;;;12.50;9.30;;;5.90;99.90;;;4.57;100.00;96557.81;5093323;28;20491;-71
2021/11/02 02:48:06;;;;;;;11.33;9.93;;;6.00;99.90;;;4.50;100.00;96541.78;5124440;28;20551;-76
2021/11/02 02:50:33;;;;;;;12.73;9.47;;;5.90;99.90;;;4.54;100.00;96549.19;5092392;28;20492;-72
2021/11/02 02:53:03;;;;;;;13.37;10.57;;;5.90;99.90;;;4.43;100.00;96554.41;5091995;28;20519;-72
2021/11/02 02:55:32;;;;;;;11.63;9.80;;;5.80;99.90;;;4.47;100.00;96559.09;5086059;28;20572;-72
2021/11/02 02:58:01;;;;;;;13.90;10.20;;;5.80;99.90;;;4.47;100.00;96553.72;5087866;28;20456;-73
2021/11/02 03:00:31;;;;;;;13.63;10.47;;;5.80;99.90;;;4.38;100.00;96544.31;5082648;28;20551;-72
2021/11/02 03:03:02;;;;;;;11.80;10.27;;;5.80;99.90;;;4.41;100.00;96549.25;5086644;28;20509;-72
2021/11/02 03:05:31;;;;;;;14.13;11.50;;;5.70;99.90;;;4.24;100.00;96541.69;5088360;28;20456;-73
2021/11/02 03:07:59;;;;;;;12.57;11.07;;;5.70;99.90;;;4.43;100.00;96555.19;5086807;28;20530;-72
2021/11/02 03:10:26;;;;;;;11.80;9.73;;;5.70;99.90;;;4.32;100.00;96550.50;5084486;28;20821;-73
2021/11/02 03:12:54;;;;;;;13.50;11.00;;;5.70;99.90;;;4.41;100.00;96551.91;5086578;28;20539;-73
2021/11/02 03:18:23;;;;;;;13.57;11.73;;;5.70;99.90;;;4.29;100.00;96556.28;5096934;28;20443;-72
2021/11/02 03:48:55;;;;;;;17.10;13.90;;;5.50;99.90;;;4.23;100.00;96553.44;5089326;28;20551;-73
2021/11/02 03:51:44;;;;;;;16.20;13.60;;;5.60;99.90;;;4.04;100.00;96562.34;5089505;28;20939;-74
2021/11/02 03:57:31;;;;;;;17.30;14.07;;;5.40;99.90;;;4.09;100.00;96559.84;5094313;28;20447;-74
2021/11/02 04:00:20;;;;;;;15.47;12.40;;;5.50;99.90;;;4.13;100.00;96563.72;5090008;28;20503;-74
2021/11/02 04:30:43;;;;;;;18.17;15.27;;;5.50;99.90;;;4.00;100.00;96558.41;5058446;28;21075;-75
2021/11/02 04:34:02;;;;;;;17.63;14.00;;;5.60;99.90;;;4.28;100.00;96600.09;5090220;28;20519;-72
2021/11/02 05:08:17;;;;;;;16.07;12.67;;;5.80;99.90;;;4.29;100.00;96602.56;5064303;28;20836;-74
2021/11/02 05:47:06;;;;;;;19.43;14.83;;;6.10;99.90;;;4.89;100.00;96603.34;5064027;28;20614;-74
2021/11/02 05:49:50;;;;;;;21.43;14.90;;;6.20;99.90;;;4.99;100.00;96609.06;5080940;28;21506;-74
2021/11/02 05:55:16;;;;;;;19.60;14.57;;;6.70;99.90;;;5.70;100.00;96600.97;5067758;28;20452;-73
2021/11/02 05:57:48;;;;;;;18.50;13.77;;;6.90;99.90;;;5.39;100.00;96603.50;5065481;28;21006;-73
2021/11/02 06:00:18;;;;;;;17.80;12.83;;;6.80;99.90;;;5.28;100.00;96595.31;5059631;28;20492;-74
2021/11/02 06:05:44;;;;;;;17.50;14.00;;;6.70;99.90;;;5.18;100.00;96591.25;5090994;28;20464;-74
2021/11/02 06:08:35;;;;;;;21.03;15.00;;;6.60;99.90;;;5.15;100.00;96604.25;5055086;28;21054;-73
2021/11/02 06:11:20;;;;;;;17.43;14.40;;;6.50;99.90;;;5.04;100.00;96601.22;5053358;28;20529;-73
2021/11/02 06:28:01;;;;;;;20.43;15.20;;;6.80;99.90;;;5.57;100.00;96599.22;5053327;28;20537;-73
2021/11/02 06:30:35;;;;;;;20.40;15.17;;;7.00;99.90;;;5.48;100.00;96609.41;5050746;28;21013;-72
2021/11/02 06:33:08;;;;;;;17.23;14.43;;;6.90;99.90;;;5.63;100.00;96601.03;5042146;28;20871;-74
2021/11/02 06:35:39;;;;;;;16.27;14.30;;;6.90;99.90;;;5.50;100.00;96609.16;5052691;28;20482;-73
2021/11/02 06:44:01;;;;;;;21.50;15.77;;;6.80;99.90;;;5.52;100.00;96607.06;5045590;28;20454;-76
2021/11/02 06:49:52;;;;;;;17.80;14.53;;;7.00;99.90;;;5.56;100.00;96608.31;5044533;28;20442;-73
2021/11/02 06:55:38;;;;;;;17.43;13.37;;;6.90;99.90;;;5.58;100.00;96611.59;5047388;28;20457;-72
2021/11/02 06:58:35;;;;;;;16.83;13.70;;;6.90;99.90;;;5.50;100.00;96612.69;5040438;28;20451;-71
2021/11/02 07:18:14;;;;;;;18.90;14.43;;;7.10;99.90;;;5.74;100.00;96598.69;5034592;28;20450;-75
2021/11/02 07:20:52;;;;;;;19.03;14.33;;;7.10;99.90;;;5.82;100.00;96606.44;5045983;28;20656;-71
2021/11/02 07:23:30;;;;;;;17.20;13.97;;;7.10;99.90;;;5.78;100.00;96599.88;5048089;28;20473;-71
2021/11/02 08:47:29;;;;;;;7.70;6.30;;;9.60;90.00;;;8.38;89.23;96613.75;5057110;28;20478;-73
2021/11/02 08:49:57;;;;;;;7.33;6.70;;;9.60;87.40;;;8.40;88.69;96598.19;5058729;28;20531;-73
2021/11/02 08:52:24;;;;;;;9.43;7.97;;;9.70;87.00;;;7.92;90.93;96590.16;5047226;28;20481;-74
2021/11/02 08:54:54;;;;;;;8.43;7.30;;;9.40;88.50;;;7.61;91.65;96602.84;5042870;28;20504;-74
2021/11/02 08:57:24;;;;;;;9.60;7.73;;;9.10;89.20;;;7.74;93.59;96598.31;5046777;28;20484;-75
2021/11/02 08:59:52;;;;;;;9.80;8.20;;;9.00;91.30;;;7.89;92.20;96601.38;5046630;28;20529;-73
2021/11/02 09:02:30;;;;;;;9.90;7.10;;;9.10;91.10;;;7.66;92.83;96602.16;5043137;28;20503;-73
2021/11/02 09:05:07;;;;;;;8.40;7.60;;;9.00;91.10;;;7.72;93.36;96605.81;5043609;28;20549;-72
2021/11/02 09:07:37;;;;;;;9.40;7.93;;;9.00;91.90;;;7.75;92.95;96613.41;5045135;28;20516;-72
2021/11/02 09:10:12;;;;;;;7.20;6.50;;;9.00;91.20;;;7.74;92.03;96607.22;5046559;28;20480;-71
2021/11/02 09:13:00;;;;;;;8.07;6.60;;;9.00;90.50;;;7.99;91.19;96606.16;5042532;28;20812;-71
2021/11/02 09:15:30;;;;;;;7.43;6.23;;;9.20;90.40;;;8.05;90.23;96605.25;5041005;28;20975;-73
2021/11/02 09:18:03;;;;;;;6.83;6.13;;;9.30;89.10;;;8.44;89.70;96602.06;5041763;28;20851;-73
2021/11/02 09:20:32;;;;;;;7.03;6.33;;;9.50;89.50;;;8.71;88.50;96604.25;5042872;28;20545;-72
2021/11/02 09:22:59;;;;;;;9.87;8.40;;;9.80;88.00;;;9.14;86.37;96598.59;5042988;28;20808;-73
2021/11/02 09:25:27;;;;;;;8.00;6.60;;;10.20;85.20;;;9.16;85.37;96601.88;5057966;28;20532;-72
2021/11/02 09:27:56;;;;;;;7.33;6.57;;;10.30;83.00;;;8.93;85.56;96596.34;5048430;28;20469;-72
2021/11/02 09:30:25;;;;;;;6.40;5.80;;;10.30;82.90;;;8.92;86.58;96601.97;5042695;28;20864;-72
2021/11/02 09:32:54;;;;;;;9.70;6.27;;;10.30;83.30;;;8.93;87.02;96598.22;5054901;28;20462;-71
2021/11/02 09:35:24;;;;;;;7.33;5.90;;;10.10;84.00;;;9.28;84.63;96599.16;5041861;28;20547;-69
2021/11/02 09:38:08;;;;;;;6.40;5.57;;;10.40;82.50;;;9.53;83.33;96601.47;5046109;28;20892;-69
2021/11/02 09:41:23;;;;;;;7.13;6.40;;;10.60;81.40;;;9.69;83.08;96599.03;5042356;28;20504;-69
2021/11/02 09:44:40;;;;;;;7.87;6.10;;;10.80;80.50;;;9.31;84.26;96587.88;5048856;28;20527;-71
2021/11/02 09:47:44;;;;;;;6.37;5.77;;;10.70;80.30;;;9.53;81.67;96596.06;5061822;28;20474;-69
2021/11/02 09:50:33;;;;;;;6.97;6.00;;;10.70;79.70;;;9.70;83.29;96597.97;5050390;28;20556;-69
2021/11/02 09:53:54;;;;;;;5.57;4.50;;;10.80;80.70;;;9.44;80.47;96598.34;5049874;28;20908;-70
2021/11/02 09:56:49;;;;;;;5.43;4.87;;;10.70;77.90;;;10.10;80.92;96588.06;5059382;28;21133;-70
2021/11/02 10:00:08;;;;;;;5.83;5.30;;;11.00;80.00;;;10.13;79.54;96583.00;5044880;28;20536;-72
2021/11/02 10:03:37;;;;;;;5.70;5.10;;;11.10;78.40;;;10.10;78.54;96582.66;5011738;28;20537;-71
2021/11/02 10:06:36;;;;;;;7.93;6.00;;;11.30;77.00;;;9.92;80.36;96558.38;5022415;28;20449;-71
2021/11/02 10:09:11;;;;;;;6.87;6.27;;;11.30;77.00;;;9.80;82.31;96573.88;5059634;28;20464;-69
2021/11/02 10:11:45;;;;;;;5.40;4.90;;;11.10;78.10;;;9.80;81.12;96562.25;5049602;28;20497;-70
2021/11/02 10:14:34;;;;;;;5.30;4.70;;;11.10;77.50;;;10.09;79.98;96565.66;5050784;28;20581;-69
2021/11/02 10:17:40;;;;;;;4.67;4.27;;;11.20;77.80;;;10.25;78.85;96571.28;5049005;28;20454;-70
2021/11/02 10:20:11;;;;;;;8.67;5.30;;;11.40;76.80;;;10.58;77.72;96572.28;5021653;28;20462;-72
2021/11/02 10:23:16;;;;;;;5.17;4.70;;;11.70;76.60;;;11.19;76.31;96560.53;5067163;28;20548;-70
2021/11/02 10:26:29;;;;;;;7.57;4.53;;;12.00;76.10;;;11.51;73.36;96570.56;5050392;28;20569;-70
2021/11/02 10:29:55;;;;;;;5.43;3.57;;;12.30;75.30;;;11.16;73.38;96569.97;5049496;28;20466;-71
2021/11/02 10:32:29;;;;;;;5.43;3.50;;;12.50;71.40;;;11.59;71.28;96564.66;5046632;28;20857;-70
2021/11/02 10:35:04;;;;;;;2.80;2.60;;;12.70;70.80;;;11.85;70.48;96559.47;5049711;28;20482;-70
2021/11/02 10:37:40;;;;;;;2.73;2.33;;;12.90;69.50;;;11.51;70.47;96556.22;5049262;28;20543;-70
2021/11/02 10:40:28;;;;;;;4.70;2.00;;;12.80;68.60;;;11.44;70.08;96556.41;5038537;28;20451;-69
2021/11/02 10:43:37;;;;;;;2.57;1.80;;;12.60;67.80;;;11.07;69.82;96546.34;5045425;28;20807;-69
2021/11/02 10:46:05;;;;;;;2.30;1.93;;;12.20;68.10;;;11.20;68.54;96545.94;4994969;28;20454;-70
2021/11/02 10:48:42;;;;;;;5.07;2.03;;;12.40;66.10;;;11.56;68.70;96546.25;5048029;28;20569;-70
2021/11/02 10:51:24;;;;;;;2.07;1.43;;;12.60;66.30;;;11.84;65.82;96543.50;5047774;28;20458;-69
2021/11/02 10:53:59;;;;;;;2.20;2.00;;;13.00;64.40;;;11.64;66.41;96542.25;5047372;28;20507;-70
2021/11/02 10:57:04;;;;;;;1.70;1.47;;;12.90;64.20;;;11.92;66.78;96553.03;5047216;28;20555;-70
2021/11/02 10:59:33;;;;;;;3.20;2.10;;;12.90;64.40;;;12.05;66.29;96549.88;5046721;28;20843;-70
2021/11/02 11:02:04;;;;;;;3.97;1.80;;;13.20;64.40;;;12.21;64.19;96547.25;5041940;28;20560;-69
2021/11/02 11:04:35;;;;;;;1.90;1.67;;;13.30;62.70;;;11.65;63.72;96526.84;5046784;28;20545;-69
2021/11/02 11:07:02;;;;;;;2.23;1.30;;;13.10;61.10;;;11.15;61.69;96551.31;5048112;28;20519;-69
2021/11/02 11:09:31;;;;;;;1.77;1.63;;;12.50;58.70;;;11.19;60.92;96534.28;5057382;28;20454;-70
2021/11/02 11:12:01;;;;;;;3.03;1.67;;;12.40;58.10;;;11.38;60.72;96549.34;5047763;28;20458;-70
2021/11/02 11:14:31;;;;;;;3.43;2.00;;;12.50;58.10;;;11.30;62.44;96524.41;5049365;28;20454;-70
2021/11/02 11:17:00;;;;;;;2.43;1.20;;;12.50;58.80;;;11.65;60.39;96537.69;5048737;28;20473;-71
2021/11/02 11:19:30;;;;;;;1.77;1.00;;;12.70;58.20;;;11.13;62.66;96534.50;5047058;28;20458;-70
2021/11/02 11:22:00;;;;;;;2.27;1.77;;;12.50;58.40;;;11.26;60.44;96538.69;5047722;28;20790;-68
2021/11/02 11:24:34;;;;;;;1.93;1.20;;;12.50;57.20;;;10.89;61.16;96541.03;5047335;28;21004;-69
2021/11/02 11:27:07;;;;;;;2.20;1.23;;;12.20;57.00;;;10.66;63.21;96535.91;5048093;28;20477;-70
2021/11/02 11:29:41;;;;;;;1.90;1.20;;;11.90;58.00;;;10.87;64.35;96528.84;5056093;28;20462;-70
2021/11/02 11:32:09;;;;;;;1.83;1.30;;;11.90;59.20;;;11.15;61.71;96538.59;5063752;28;20460;-69
2021/11/02 11:34:42;;;;;;;1.90;0.87;;;12.10;58.40;;;11.47;59.31;96540.50;5052123;28;20496;-71
2021/11/02 11:37:12;;;;;;;2.30;1.10;;;12.40;57.00;;;11.47;60.29;96528.88;5051670;28;20827;-69
2021/11/02 11:39:41;;;;;;;2.23;0.90;;;12.60;57.50;;;11.49;61.26;96532.13;5046929;28;20497;-70
2021/11/02 11:42:14;;;;;;;2.20;0.80;;;12.70;57.90;;;11.29;60.81;96533.56;5054527;28;20454;-69
2021/11/02 11:44:50;;;;;;;2.13;1.13;;;12.50;57.70;;;11.36;60.83;96516.34;5048992;28;20545;-69
2021/11/02 11:47:23;;;;;;;1.10;1.00;;;12.60;57.40;;;11.06;60.62;96529.28;5041868;28;20527;-69
2021/11/02 11:49:52;;;;;;;1.70;1.00;;;12.40;56.70;;;11.28;59.21;96531.16;5053843;28;21031;-70
2021/11/02 11:52:24;;;;;;;2.40;1.00;;;12.50;56.60;;;11.66;58.64;96525.78;5047583;28;20500;-70
2021/11/02 11:54:54;;;;;;;1.77;1.20;;;12.70;56.30;;;11.37;57.58;96523.38;5048068;28;20977;-69
2021/11/02 11:57:30;;;;;;;2.63;0.93;;;12.70;55.30;;;11.19;58.76;96530.78;5045483;28;21048;-69
2021/11/02 12:00:04;;;;;;;1.73;1.60;;;12.40;55.50;;;11.15;57.82;96526.97;5056218;28;20751;-69
2021/11/02 12:02:33;;;;;;;1.17;1.00;;;12.30;55.20;;;11.04;58.59;96526.88;5044896;28;21008;-70
2021/11/02 12:05:05;;;;;;;3.83;1.90;;;12.30;55.50;;;10.94;60.73;96534.06;5056448;28;20898;-68
2021/11/02 12:07:40;;;;;;;2.07;1.57;;;12.10;56.50;;;11.02;62.49;96520.91;5047039;28;20461;-70
2021/11/02 12:10:10;;;;;;;5.33;1.20;;;12.10;57.80;;;10.53;60.82;96519.00;5056142;28;20552;-69
2021/11/02 12:12:40;;;;;;;1.80;1.10;;;11.80;56.30;;;10.69;60.35;96520.03;5048482;28;20459;-71
2021/11/02 12:15:12;;;;;;;2.17;1.13;;;11.80;56.40;;;10.62;60.83;96509.41;5048025;28;20454;-69
2021/11/02 12:17:43;;;;;;;1.70;1.27;;;11.80;56.80;;;10.63;63.27;96510.22;5045902;28;20542;-69
2021/11/02 12:20:13;;;;;;;2.00;1.47;;;11.80;57.60;;;11.25;61.53;96505.44;5047269;28;20454;-71
2021/11/02 12:22:56;;;;;;;1.50;1.40;;;12.10;58.10;;;11.66;61.24;96510.34;5055480;28;20775;-70
2021/11/02 12:25:33;;;;;;;3.00;1.30;;;12.60;57.90;;;12.06;59.79;96508.22;5056088;28;20453;-69
2021/11/02 12:28:00;;;;;;;1.60;1.50;;;13.00;57.70;;;11.87;59.40;96497.78;5052970;28;20809;-70
2021/11/02 12:30:28;;;;;;;4.40;1.53;;;13.10;56.90;;;11.77;58.89;96501.22;5063485;28;20472;-70
2021/11/02 12:32:57;;;;;;;1.93;1.33;;;12.90;56.10;;;11.79;59.45;96498.28;5044904;28;20562;-70
2021/11/02 12:35:46;;;;;;;1.47;0.90;;;13.00;56.50;;;11.34;59.28;96493.09;5044862;28;20501;-71
2021/11/02 12:38:14;;;;;;;1.60;1.40;;;12.70;56.00;;;11.40;59.93;96512.88;5042012;28;20484;-69
2021/11/02 12:40:45;;;;;;;1.50;1.00;;;12.60;56.20;;;11.28;59.31;96504.91;5061706;28;20462;-69
2021/11/02 12:43:23;;;;;;;1.73;1.30;;;12.50;55.80;;;11.32;59.23;96500.63;5044636;28;20473;-69
2021/11/02 12:45:51;;;;;;;1.90;1.13;;;12.50;55.70;;;11.08;59.93;96496.63;5042409;28;20454;-70
2021/11/02 12:48:20;;;;;;;1.27;1.17;;;12.30;55.90;;;11.25;61.16;96494.63;5045364;28;20481;-70
2021/11/02 12:50:49;;;;;;;1.53;1.43;;;12.30;56.80;;;11.11;60.02;96498.81;5044888;28;20467;-71
2021/11/02 12:53:19;;;;;;;2.70;1.30;;;12.20;56.10;;;10.73;61.01;96491.44;5042314;28;20498;-69
2021/11/02 12:55:46;;;;;;;1.63;1.20;;;12.00;56.40;;;10.84;61.01;96503.16;5038356;28;20454;-70
2021/11/02 12:58:20;;;;;;;2.93;1.40;;;12.00;56.50;;;10.76;61.39;96504.41;5038742;28;20896;-70
2021/11/02 13:00:51;;;;;;;2.90;1.60;;;12.00;57.00;;;10.44;62.73;96490.81;5041575;28;20557;-70
2021/11/02 13:03:26;;;;;;;2.60;1.27;;;11.80;57.00;;;10.99;62.19;96497.06;5043814;28;21052;-71
2021/11/02 13:05:59;;;;;;;1.90;1.40;;;12.00;57.80;;;11.13;61.49;96507.47;5060456;28;20561;-69
2021/11/02 13:08:46;;;;;;;2.33;1.63;;;12.20;57.30;;;10.98;60.73;96490.03;5059129;28;20472;-71
2021/11/02 13:11:16;;;;;;;2.67;2.03;;;12.30;56.60;;;10.94;62.09;96507.03;5057679;28;20560;-71
2021/11/02 13:14:04;;;;;;;1.83;1.30;;;12.10;56.90;;;11.00;61.34;96509.53;5049437;28;20453;-71
2021/11/02 13:16:33;;;;;;;2.73;1.20;;;12.20;56.80;;;10.96;62.59;96513.81;5047298;28;20836;-70
2021/11/02 13:19:16;;;;;;;1.93;1.83;;;12.10;57.50;;;10.43;63.60;96508.09;5049235;28;20450;-72
2021/11/02 13:21:45;;;;;;;2.00;1.30;;;11.90;57.60;;;10.37;65.31;96515.25;5045211;28;20469;-68
2021/11/02 13:24:21;;;;;;;3.93;2.37;;;11.70;58.80;;;9.78;69.30;96527.41;5045209;28;21171;-69
2021/11/02 13:26:50;;;;;;;2.10;1.67;;;11.20;60.40;;;9.24;73.64;96534.13;5061048;28;20445;-69
2021/11/02 13:29:20;;;;;;;1.93;1.20;;;10.70;62.70;;;8.80;77.46;96545.47;5068796;28;20545;-69
2021/11/02 13:31:48;;;;;;;3.03;1.63;;;10.20;65.90;;;8.66;81.72;96546.81;5051601;28;20618;-68
2021/11/02 13:34:18;;;;;;;2.67;1.73;;;9.90;72.80;;;8.33;82.72;96544.50;5050629;28;20902;-70
2021/11/02 13:36:46;;;;;;;2.63;1.93;;;9.70;75.10;;;8.21;85.34;96552.59;5051483;28;20865;-70
2021/11/02 13:39:17;;;;;;;2.50;2.20;;;9.60;79.80;;;8.16;86.48;96547.13;5048006;28;21105;-71
2021/11/02 13:41:49;;;;;;;4.27;3.10;;;9.50;82.40;;;8.09;88.34;96546.41;5044988;28;20892;-72
2021/11/02 13:44:18;;;;;;;4.40;2.73;;;9.40;85.00;;;8.14;87.79;96549.22;5046655;28;21213;-70
2021/11/02 13:46:49;;;;;;;4.93;2.60;;;9.40;85.30;;;8.21;87.41;96554.47;5048393;28;20916;-71
2021/11/02 13:49:18;;;;;;;5.77;2.93;;;9.50;85.30;;;8.04;88.69;96538.22;5049150;28;20478;-73
2021/11/02 13:51:46;;;;;;;5.87;3.57;;;9.40;85.50;;;8.11;88.37;96555.06;5047191;28;20623;-71
2021/11/02 13:54:15;;;;;;;3.90;2.50;;;9.40;86.00;;;8.27;87.43;96552.72;5047957;28;20466;-70
2021/11/02 13:56:45;;;;;;;3.90;2.10;;;9.50;85.30;;;8.02;89.78;96556.47;5062792;28;20517;-73
2021/11/02 13:59:14;;;;;;;2.70;2.13;;;9.30;87.00;;;7.74;88.94;96501.53;5060922;28;20454;-74
2021/11/02 14:01:45;;;;;;;3.73;2.67;;;9.40;86.50;;;8.29;88.28;96558.69;5055995;28;20470;-72
2021/11/02 14:04:16;;;;;;;4.80;2.70;;;9.40;86.50;;;8.36;88.82;96549.44;5049898;28;21902;-74
2021/11/02 14:06:48;;;;;;;3.43;2.27;;;9.60;88.00;;;8.57;87.86;96559.81;5056384;28;20865;-74
2021/11/02 14:09:28;;;;;;;3.27;2.50;;;9.70;87.10;;;8.54;88.34;96562.97;5048017;28;20470;-73
2021/11/02 14:11:56;;;;;;;2.50;2.07;;;9.70;87.30;;;8.71;88.63;96560.34;5051926;28;20501;-73
2021/11/02 14:14:34;;;;;;;4.93;2.40;;;9.80;87.80;;;8.54;89.48;96562.97;5060715;28;20498;-73
2021/11/02 14:17:17;;;;;;;4.80;3.27;;;9.80;87.80;;;8.50;88.92;96566.16;5056393;28;20462;-75
2021/11/02 14:19:44;;;;;;;4.73;2.40;;;9.80;87.50;;;9.00;87.63;96558.47;5045874;28;20494;-73
2021/11/02 14:22:12;;;;;;;4.70;3.63;;;10.10;86.60;;;8.64;89.09;96564.03;5056441;28;20545;-73
2021/11/02 14:24:44;;;;;;;5.10;3.30;;;9.90;86.60;;;8.61;90.93;96569.06;5058409;28;20446;-73
2021/11/02 14:27:13;;;;;;;3.47;2.57;;;9.90;89.70;;;8.62;89.68;96560.72;5050495;28;20466;-74
2021/11/02 14:29:57;;;;;;;9.03;3.20;;;9.90;88.30;;;8.86;88.23;96555.28;5049959;28;20473;-75
2021/11/02 14:32:55;;;;;;;4.30;3.27;;;9.90;87.10;;;8.79;88.52;96568.88;5046744;28;20469;-72
2021/11/02 14:35:47;;;;;;;3.77;2.30;;;10.00;85.00;;;8.88;87.22;96541.56;5044837;28;20464;-75
2021/11/02 14:38:16;;;;;;;4.33;2.40;;;10.00;84.90;;;8.93;86.66;96555.13;5055188;28;20454;-73
2021/11/02 14:40:46;;;;;;;3.97;2.57;;;10.10;84.10;;;8.65;86.96;96554.06;5044210;28;20573;-71
2021/11/02 14:43:40;;;;;;;2.90;2.50;;;10.00;83.60;;;8.82;86.37;96559.50;5044779;28;20517;-73
2021/11/02 14:46:19;;;;;;;3.03;2.63;;;10.10;83.70;;;8.79;86.61;96558.09;5053043;28;20458;-73
2021/11/02 14:48:49;;;;;;;4.33;3.03;;;10.00;84.10;;;8.68;87.19;96552.78;5044085;28;20492;-73
2021/11/02 14:51:28;;;;;;;4.00;2.70;;;10.00;84.10;;;8.69;87.39;96557.91;5046258;28;20465;-71
2021/11/02 14:53:59;;;;;;;3.80;2.10;;;9.90;85.80;;;8.70;87.23;96556.84;5041189;28;20458;-72
2021/11/02 14:56:33;;;;;;;4.63;2.33;;;9.90;84.80;;;9.00;84.99;96565.75;5047867;28;20541;-72
2021/11/02 14:59:03;;;;;;;4.60;2.27;;;10.10;83.10;;;8.76;86.45;96555.91;5060795;28;20504;-73
2021/11/02 15:02:07;;;;;;;1.97;1.77;;;10.00;83.50;;;8.53;85.39;96561.34;5045679;28;20605;-72
2021/11/02 15:04:58;;;;;;;4.00;2.10;;;9.80;83.50;;;8.60;87.00;96578.19;5048373;28;20458;-72
2021/11/02 15:13:53;;;;;;;3.40;2.33;;;9.80;84.10;;;8.60;85.97;96572.81;5059656;28;20438;-74
2021/11/02 15:16:23;;;;;;;3.43;2.13;;;9.70;84.30;;;8.85;83.89;96569.78;5047265;28;21229;-72
2021/11/02 15:18:52;;;;;;;2.73;2.07;;;10.00;81.80;;;9.04;84.28;96566.91;5050078;28;20482;-71
2021/11/02 15:21:31;;;;;;;4.60;2.50;;;10.10;81.60;;;8.99;83.06;96578.41;5055679;28;20819;-69